createdAt,value
2018-08-30T00:00:39.468Z,99691.13
2018-08-30T00:03:07.720Z,99700.27
2018-08-30T00:05:36.367Z,99713.25
2018-08-30T00:08:05.626Z,99713.94
2018-08-30T00:10:33.269Z,99722.69
2018-08-30T00:13:00.932Z,99734.63
2018-08-30T00:15:28.838Z,99738.34
2018-08-30T00:17:57.425Z,99744.38
2018-08-30T00:20:25.047Z,99745.89
2018-08-30T00:22:52.701Z,99756.14
2018-08-30T00:25:20.607Z,99765.87
2018-08-30T00:27:48.279Z,99785.72
2018-08-30T00:30:15.967Z,99784.50
2018-08-30T00:32:43.889Z,99798.77
2018-08-30T00:35:11.547Z,99801.80
2018-08-30T00:37:39.962Z,99800.95
2018-08-30T00:40:07.895Z,99809.69
2018-08-30T00:42:35.510Z,99818.58
2018-08-30T00:45:03.158Z,99828.14
2018-08-30T00:47:31.201Z,99816.88
2018-08-30T00:49:59.392Z,99827.81
2018-08-30T00:52:26.978Z,99823.44
2018-08-30T00:54:54.919Z,99832.36
2018-08-30T01:00:05.647Z,99840.73
2018-08-30T01:02:33.731Z,99853.31
2018-08-30T01:05:01.331Z,99855.82
2018-08-30T01:07:28.956Z,99859.52
2018-08-30T01:09:56.577Z,99866.02
2018-08-30T01:15:12.055Z,99872.17
2018-08-30T01:17:40.372Z,99881.57
2018-08-30T01:20:07.999Z,99875.52
2018-08-30T01:22:35.700Z,99884.22
2018-08-30T01:25:03.664Z,99890.93
2018-08-30T01:27:31.298Z,99893.05
2018-08-30T01:29:58.899Z,99893.34
2018-08-30T01:32:26.805Z,99900.38
2018-08-30T01:34:54.430Z,99901.53
2018-08-30T01:37:22.057Z,99900.32
2018-08-30T01:39:50.068Z,99912.88
2018-08-30T01:42:18.615Z,99915.52
2018-08-30T01:44:46.214Z,99911.81
2018-08-30T01:47:14.112Z,99917.19
2018-08-30T01:49:41.736Z,99919.35
2018-08-30T01:52:09.368Z,99925.09
2018-08-30T01:54:37.271Z,99926.26
2018-08-30T01:57:04.881Z,99928.80
2018-08-30T01:59:33.312Z,99934.84
2018-08-30T02:02:01.177Z,99937.71
2018-08-30T02:04:28.807Z,99939.34
2018-08-30T02:06:56.446Z,99936.32
2018-08-30T02:09:24.062Z,99936.80
2018-08-30T02:11:51.952Z,99946.72
2018-08-30T02:14:19.592Z,99935.98
2018-08-30T02:16:47.225Z,99937.98
2018-08-30T02:19:14.895Z,99948.88
2018-08-30T02:21:42.778Z,99945.99
2018-08-30T02:24:10.403Z,99946.66
2018-08-30T02:26:39.300Z,99942.29
2018-08-30T02:29:06.959Z,99943.62
2018-08-30T02:31:34.838Z,99943.29
2018-08-30T02:34:02.452Z,99948.00
2018-08-30T02:36:31.415Z,99935.40
2018-08-30T02:38:59.014Z,99939.94
2018-08-30T02:41:26.934Z,99937.06
2018-08-30T02:43:54.531Z,99937.55
2018-08-30T02:46:23.076Z,99945.97
2018-08-30T02:48:50.871Z,99938.89
2018-08-30T02:51:19.352Z,99945.97
2018-08-30T02:53:46.965Z,99937.92
2018-08-30T02:56:14.607Z,99946.45
2018-08-30T02:58:42.573Z,99945.26
2018-08-30T03:01:10.211Z,99945.26
2018-08-30T03:03:37.846Z,99947.27
2018-08-30T03:06:05.469Z,99945.58
2018-08-30T03:08:33.580Z,99953.49
2018-08-30T03:11:01.179Z,99955.00
2018-08-30T03:13:28.819Z,99961.22
2018-08-30T03:15:56.712Z,99955.71
2018-08-30T03:18:24.319Z,99966.45
2018-08-30T03:20:51.971Z,99967.80
2018-08-30T03:23:19.626Z,99969.77
2018-08-30T03:25:47.562Z,99971.11
2018-08-30T03:28:16.206Z,99973.79
2018-08-30T03:30:43.855Z,99973.97
2018-08-30T03:33:11.838Z,99978.82
2018-08-30T03:35:39.486Z,99974.45
2018-08-30T03:38:07.098Z,99977.66
2018-08-30T03:40:35.629Z,99978.48
2018-08-30T03:43:03.251Z,99979.34
2018-08-30T03:45:30.895Z,99980.50
2018-08-30T03:47:58.830Z,99985.25
2018-08-30T03:50:26.459Z,99984.39
2018-08-30T03:52:54.104Z,99990.76
2018-08-30T03:55:21.722Z,99991.91
2018-08-30T03:57:49.632Z,99996.93
2018-08-30T04:00:18.170Z,99999.94
2018-08-30T04:02:45.801Z,100009.81
2018-08-30T04:05:13.770Z,100009.81
2018-08-30T04:07:41.436Z,100006.93
2018-08-30T04:10:09.077Z,100006.93
2018-08-30T04:12:36.973Z,100003.56
2018-08-30T04:15:04.644Z,100010.61
2018-08-30T04:17:32.261Z,100014.64
2018-08-30T04:19:59.915Z,100018.53
2018-08-30T04:22:27.816Z,100012.30
2018-08-30T04:24:56.376Z,100013.50
2018-08-30T04:27:24.031Z,100017.87
2018-08-30T04:29:51.671Z,100019.89
2018-08-30T04:32:19.323Z,100024.13
2018-08-30T04:34:46.975Z,100019.61
2018-08-30T04:37:15.687Z,100019.09
2018-08-30T04:39:43.316Z,100016.75
2018-08-30T04:42:10.999Z,100013.58
2018-08-30T04:44:38.944Z,100014.58
2018-08-30T04:47:06.654Z,100016.61
2018-08-30T04:49:34.329Z,100016.95
2018-08-30T04:52:03.128Z,100019.49
2018-08-30T04:54:30.758Z,100029.89
2018-08-30T04:56:58.467Z,100028.41
2018-08-30T04:59:26.387Z,100031.58
2018-08-30T05:01:54.084Z,100034.12
2018-08-30T05:04:21.795Z,100036.63
2018-08-30T05:06:49.725Z,100039.31
2018-08-30T05:09:17.959Z,100046.23
2018-08-30T05:11:45.647Z,100046.42
2018-08-30T05:14:13.535Z,100049.45
2018-08-30T05:16:41.211Z,100058.56
2018-08-30T05:19:08.810Z,100058.56
2018-08-30T05:21:36.699Z,100059.25
2018-08-30T05:24:04.327Z,100070.81
2018-08-30T05:26:33.344Z,100060.59
2018-08-30T05:29:01.320Z,100062.28
2018-08-30T05:31:29.730Z,100065.82
2018-08-30T05:33:57.395Z,100069.67
2018-08-30T05:36:25.347Z,100072.22
2018-08-30T05:38:53.840Z,100072.77
2018-08-30T05:41:21.730Z,100080.50
2018-08-30T05:43:50.179Z,100077.81
2018-08-30T05:46:18.428Z,100081.36
2018-08-30T05:48:47.695Z,100089.76
2018-08-30T05:51:15.705Z,100091.10
2018-08-30T05:53:43.320Z,100088.41
2018-08-30T05:56:11.820Z,100092.11
2018-08-30T05:58:39.736Z,100091.10
2018-08-30T06:01:07.453Z,100104.05
2018-08-30T06:03:35.605Z,100106.73
2018-08-30T06:06:03.536Z,100106.73
2018-08-30T06:08:32.122Z,100107.91
2018-08-30T06:11:00.310Z,100104.39
2018-08-30T06:13:28.304Z,100104.59
2018-08-30T06:16:00.479Z,100110.65
2018-08-30T06:18:28.152Z,100111.81
2018-08-30T06:20:56.803Z,100113.88
2018-08-30T06:23:25.169Z,100118.10
2018-08-30T06:25:52.795Z,100113.41
2018-08-30T06:28:20.660Z,100112.90
2018-08-30T06:30:48.313Z,100110.06
2018-08-30T06:33:15.944Z,100112.95
2018-08-30T06:35:45.386Z,100119.19
2018-08-30T06:38:13.033Z,100120.88
2018-08-30T06:40:40.712Z,100124.38
2018-08-30T06:43:08.614Z,100133.30
2018-08-30T06:45:36.238Z,100132.78
2018-08-30T06:48:04.839Z,100135.67
2018-08-30T06:50:32.776Z,100140.77
2018-08-30T06:53:03.259Z,100141.30
2018-08-30T06:55:30.995Z,100139.16
2018-08-30T06:57:58.921Z,100144.35
2018-08-30T07:00:26.591Z,100147.23
2018-08-30T07:02:54.265Z,100144.06
2018-08-30T07:05:22.313Z,100147.12
2018-08-30T07:07:49.968Z,100149.30
2018-08-30T07:10:18.658Z,100150.84
2018-08-30T07:12:46.612Z,100151.52
2018-08-30T07:15:14.346Z,100150.23
2018-08-30T07:17:42.046Z,100157.69
2018-08-30T07:20:10.039Z,100156.48
2018-08-30T07:22:37.626Z,100157.49
2018-08-30T07:25:05.254Z,100163.69
2018-08-30T07:27:33.338Z,100166.38
2018-08-30T07:30:01.210Z,100166.38
2018-08-30T07:32:29.420Z,100172.13
2018-08-30T07:34:57.429Z,100172.62
2018-08-30T07:37:26.043Z,100174.97
2018-08-30T07:39:53.662Z,100185.92
2018-08-30T07:42:22.456Z,100184.25
2018-08-30T07:44:50.739Z,100194.41
2018-08-30T07:47:18.437Z,100184.38
2018-08-30T07:49:47.494Z,100188.09
2018-08-30T07:52:15.140Z,100197.23
2018-08-30T07:54:42.792Z,100198.30
2018-08-30T07:57:10.726Z,100202.75
2018-08-30T07:59:38.901Z,100201.80
2018-08-30T08:04:45.067Z,100208.02
2018-08-30T08:07:13.600Z,100223.87
2018-08-30T08:09:41.320Z,100224.41
2018-08-30T08:12:09.504Z,100229.94
2018-08-30T08:14:37.282Z,100226.92
2018-08-30T08:17:05.966Z,100238.83
2018-08-30T08:19:36.084Z,100236.05
2018-08-30T08:22:04.593Z,100236.77
2018-08-30T08:24:37.410Z,100236.95
2018-08-30T08:27:05.608Z,100240.55
2018-08-30T08:29:33.488Z,100236.40
2018-08-30T08:32:02.831Z,100239.95
2018-08-30T08:34:31.418Z,100244.55
2018-08-30T08:36:59.088Z,100244.55
2018-08-30T08:39:27.426Z,100243.02
2018-08-30T08:41:55.356Z,100244.19
2018-08-30T08:44:24.131Z,100242.34
2018-08-30T08:46:52.754Z,100246.12
2018-08-30T08:49:20.683Z,100247.55
2018-08-30T08:51:48.353Z,100246.75
2018-08-30T08:54:16.035Z,100247.26
2018-08-30T08:56:44.011Z,100252.70
2018-08-30T08:59:12.333Z,100254.91
2018-08-30T09:01:41.587Z,100252.89
2018-08-30T09:04:09.502Z,100247.67
2018-08-30T09:06:37.139Z,100248.58
2018-08-30T09:09:06.533Z,100250.25
2018-08-30T09:11:34.496Z,100256.16
2018-08-30T09:14:02.195Z,100255.81
2018-08-30T09:16:31.071Z,100263.73
2018-08-30T09:18:59.016Z,100258.33
2018-08-30T09:21:26.658Z,100256.63
2018-08-30T09:23:54.357Z,100254.92
2018-08-30T09:26:22.334Z,100253.02
2018-08-30T09:28:50.014Z,100253.44
2018-08-30T09:31:17.650Z,100260.49
2018-08-30T09:33:45.588Z,100256.34
2018-08-30T09:36:13.304Z,100258.06
2018-08-30T09:38:42.270Z,100262.97
2018-08-30T09:41:10.249Z,100259.14
2018-08-30T09:43:39.155Z,100261.52
2018-08-30T09:46:08.664Z,100262.87
2018-08-30T09:48:36.637Z,100253.93
2018-08-30T09:51:04.313Z,100253.63
2018-08-30T09:53:31.939Z,100250.41
2018-08-30T09:56:00.475Z,100252.89
2018-08-30T09:58:28.130Z,100258.95
2018-08-30T10:01:00.670Z,100252.84
2018-08-30T10:03:28.616Z,100247.97
2018-08-30T10:05:56.238Z,100249.39
2018-08-30T10:08:24.183Z,100262.73
2018-08-30T10:10:52.741Z,100258.89
2018-08-30T10:13:21.210Z,100263.61
2018-08-30T10:15:48.916Z,100269.06
2018-08-30T10:18:16.835Z,100262.47
2018-08-30T10:33:57.169Z,100264.25
2018-08-30T10:36:24.847Z,100274.87
2018-08-30T10:38:53.261Z,100277.36
2018-08-30T10:41:20.937Z,100273.58
2018-08-30T10:43:48.636Z,100273.61
2018-08-30T10:46:16.588Z,100272.67
2018-08-30T10:48:44.981Z,100268.27
2018-08-30T10:51:13.699Z,100267.86
2018-08-30T10:53:46.258Z,100260.98
2018-08-30T10:56:13.966Z,100256.99
2018-08-30T10:58:42.388Z,100258.25
2018-08-30T11:01:10.265Z,100263.92
2018-08-30T11:03:37.977Z,100264.70
2018-08-30T11:06:06.296Z,100256.84
2018-08-30T11:08:35.208Z,100261.45
2018-08-30T11:11:03.397Z,100256.88
2018-08-30T11:13:31.400Z,100268.70
2018-08-30T11:16:00.344Z,100269.05
2018-08-30T11:18:28.759Z,100270.56
2018-08-30T11:20:56.374Z,100280.92
2018-08-30T11:23:24.874Z,100274.34
2018-08-30T11:25:53.779Z,100268.22
2018-08-30T11:28:21.403Z,100265.95
2018-08-30T11:30:49.360Z,100261.50
2018-08-30T11:33:17.040Z,100257.52
2018-08-30T11:35:45.288Z,100258.11
2018-08-30T11:38:13.266Z,100250.70
2018-08-30T11:40:41.703Z,100259.81
2018-08-30T11:43:10.390Z,100255.95
2018-08-30T11:45:40.182Z,100269.55
2018-08-30T11:48:07.806Z,100271.22
2018-08-30T11:50:37.338Z,100274.69
2018-08-30T11:53:07.409Z,100290.70
2018-08-30T11:55:35.678Z,100286.30
2018-08-30T11:58:03.393Z,100287.27
2018-08-30T12:00:31.355Z,100290.76
2018-08-30T12:02:59.842Z,100289.39
2018-08-30T12:05:27.580Z,100296.21
2018-08-30T12:07:55.643Z,100301.40
2018-08-30T12:10:24.236Z,100309.47
2018-08-30T12:12:53.637Z,100306.64
2018-08-30T12:15:22.529Z,100307.61
2018-08-30T12:17:50.901Z,100312.00
2018-08-30T12:20:18.579Z,100312.44
2018-08-30T12:22:46.458Z,100309.09
2018-08-30T12:25:15.331Z,100316.03
2018-08-30T12:27:43.904Z,100317.72
2018-08-30T12:30:11.893Z,100314.23
2018-08-30T12:32:40.190Z,100317.42
2018-08-30T12:35:11.565Z,100313.73
2018-08-30T12:37:39.478Z,100307.85
2018-08-30T12:40:08.142Z,100302.63
2018-08-30T12:42:36.547Z,100300.45
2018-08-30T12:45:04.590Z,100297.58
2018-08-30T12:47:33.264Z,100299.31
2018-08-30T12:50:04.067Z,100309.23
2018-08-30T12:52:32.135Z,100310.58
2018-08-30T12:54:59.792Z,100323.62
2018-08-30T12:57:29.356Z,100324.17
2018-08-30T12:59:57.336Z,100328.53
2018-08-30T13:02:25.584Z,100329.95
2018-08-30T13:04:53.941Z,100330.98
2018-08-30T13:07:25.787Z,100326.36
2018-08-30T13:09:53.908Z,100322.95
2018-08-30T13:12:23.919Z,100324.59
2018-08-30T13:14:51.952Z,100328.45
2018-08-30T13:17:19.589Z,100318.14
2018-08-30T13:19:47.252Z,100326.66
2018-08-30T13:22:16.359Z,100324.44
2018-08-30T13:24:43.906Z,100318.73
2018-08-30T13:27:13.672Z,100322.55
2018-08-30T13:29:45.366Z,100317.13
2018-08-30T13:32:13.204Z,100321.18
2018-08-30T13:34:40.903Z,100318.95
2018-08-30T13:37:09.570Z,100326.55
2018-08-30T13:39:37.857Z,100320.41
2018-08-30T13:42:07.370Z,100319.80
2018-08-30T13:44:35.396Z,100313.87
2018-08-30T13:47:03.692Z,100316.78
2018-08-30T13:49:33.044Z,100309.47
2018-08-30T13:52:01.464Z,100304.23
2018-08-30T13:54:29.922Z,100306.42
2018-08-30T13:56:58.799Z,100311.58
2018-08-30T13:59:26.888Z,100311.98
2018-08-30T14:01:55.802Z,100320.37
2018-08-30T14:04:23.622Z,100317.09
2018-08-30T14:06:52.694Z,100310.52
2018-08-30T14:09:21.751Z,100314.45
2018-08-30T14:11:49.652Z,100317.96
2018-08-30T14:14:21.192Z,100318.64
2018-08-30T14:16:48.702Z,100318.73
2018-08-30T14:19:17.146Z,100321.84
2018-08-30T14:21:45.031Z,100319.58
2018-08-30T14:24:12.663Z,100325.71
2018-08-30T14:26:40.738Z,100324.79
2018-08-30T14:29:08.593Z,100330.44
2018-08-30T14:31:36.211Z,100331.61
2018-08-30T14:34:03.856Z,100333.42
2018-08-30T14:36:32.597Z,100335.32
2018-08-30T14:39:01.515Z,100337.62
2018-08-30T14:41:30.968Z,100336.63
2018-08-30T14:43:58.986Z,100338.27
2018-08-30T14:46:27.559Z,100334.34
2018-08-30T14:48:56.194Z,100333.36
2018-08-30T14:51:24.235Z,100344.59
2018-08-30T14:53:52.356Z,100341.25
2018-08-30T14:56:20.184Z,100347.98
2018-08-30T14:58:49.303Z,100346.94
2018-08-30T15:01:17.780Z,100337.84
2018-08-30T15:03:46.424Z,100345.39
2018-08-30T15:06:15.287Z,100338.18
2018-08-30T15:08:42.938Z,100340.09
2018-08-30T15:11:10.863Z,100345.73
2018-08-30T15:13:40.353Z,100349.81
2018-08-30T15:16:08.807Z,100339.33
2018-08-30T15:18:38.129Z,100330.75
2018-08-30T15:21:06.801Z,100335.05
2018-08-30T15:23:34.474Z,100335.54
2018-08-30T15:26:02.135Z,100340.61
2018-08-30T15:28:30.214Z,100340.39
2018-08-30T15:30:57.847Z,100340.27
2018-08-30T15:33:25.506Z,100334.85
2018-08-30T15:35:53.409Z,100334.81
2018-08-30T15:38:21.043Z,100338.90
2018-08-30T15:40:49.859Z,100336.11
2018-08-30T15:43:18.510Z,100344.18
2018-08-30T15:45:47.494Z,100345.08
2018-08-30T15:48:15.436Z,100344.88
2018-08-30T15:50:43.959Z,100345.97
2018-08-30T15:53:11.748Z,100350.31
2018-08-30T15:55:39.657Z,100341.73
2018-08-30T15:58:07.294Z,100352.20
2018-08-30T16:00:34.912Z,100352.95
2018-08-30T16:03:02.884Z,100351.34
2018-08-30T16:05:31.196Z,100347.53
2018-08-30T16:07:58.853Z,100347.95
2018-08-30T16:10:28.630Z,100346.73
2018-08-30T16:12:58.512Z,100351.56
2018-08-30T16:15:26.292Z,100345.48
2018-08-30T16:17:55.095Z,100347.59
2018-08-30T16:20:26.175Z,100353.42
2018-08-30T16:22:55.016Z,100358.16
2018-08-30T16:25:22.971Z,100359.90
2018-08-30T16:27:50.574Z,100352.64
2018-08-30T16:30:18.465Z,100353.13
2018-08-30T16:32:49.239Z,100356.97
2018-08-30T16:35:17.884Z,100354.55
2018-08-30T16:37:46.283Z,100359.64
2018-08-30T16:40:14.252Z,100357.21
2018-08-30T16:42:44.607Z,100363.46
2018-08-30T16:45:12.309Z,100358.33
2018-08-30T16:47:42.750Z,100359.46
2018-08-30T16:50:10.615Z,100364.08
2018-08-30T16:52:38.988Z,100370.23
2018-08-30T16:55:06.964Z,100363.70
2018-08-30T16:57:35.590Z,100365.75
2018-08-30T17:00:04.739Z,100360.56
2018-08-30T17:02:32.695Z,100360.92
2018-08-30T17:05:04.408Z,100365.67
2018-08-30T17:07:35.735Z,100371.44
2018-08-30T17:10:04.230Z,100368.75
2018-08-30T17:12:32.451Z,100368.58
2018-08-30T17:15:00.287Z,100381.76
2018-08-30T17:17:30.658Z,100383.30
2018-08-30T17:19:58.600Z,100384.64
2018-08-30T17:22:29.558Z,100387.70
2018-08-30T17:25:04.181Z,100384.99
2018-08-30T17:27:31.812Z,100384.33
2018-08-30T17:29:59.488Z,100388.38
2018-08-30T17:32:29.488Z,100386.48
2018-08-30T17:34:58.753Z,100387.67
2018-08-30T17:37:30.077Z,100393.05
2018-08-30T17:39:58.740Z,100386.63
2018-08-30T17:42:26.496Z,100389.80
2018-08-30T17:44:54.354Z,100389.44
2018-08-30T17:47:22.459Z,100395.48
2018-08-30T17:49:50.688Z,100397.34
2018-08-30T17:52:18.335Z,100398.32
2018-08-30T17:54:46.308Z,100402.86
2018-08-30T17:57:17.498Z,100403.54
2018-08-30T17:59:47.420Z,100403.70
2018-08-30T18:02:17.902Z,100404.86
2018-08-30T18:04:46.539Z,100404.67
2018-08-30T18:07:14.270Z,100405.69
2018-08-30T18:09:42.167Z,100412.77
2018-08-30T18:12:10.632Z,100414.77
2018-08-30T18:14:38.600Z,100423.19
2018-08-30T18:17:06.588Z,100419.30
2018-08-30T18:19:36.032Z,100419.45
2018-08-30T18:22:04.560Z,100417.77
2018-08-30T18:24:34.500Z,100421.47
2018-08-30T18:27:03.984Z,100429.38
2018-08-30T18:29:32.569Z,100428.21
2018-08-30T18:32:00.605Z,100433.27
2018-08-30T18:34:28.349Z,100435.26
2018-08-30T18:36:56.066Z,100438.14
2018-08-30T18:39:25.385Z,100442.34
2018-08-30T18:41:53.675Z,100443.00
2018-08-30T18:44:21.936Z,100445.36
2018-08-30T18:46:50.038Z,100451.06
2018-08-30T18:49:17.728Z,100445.33
2018-08-30T18:51:45.557Z,100454.77
2018-08-30T18:54:13.467Z,100458.96
2018-08-30T18:56:41.995Z,100459.97
2018-08-30T18:59:09.661Z,100455.59
2018-08-30T19:01:40.697Z,100466.03
2018-08-30T19:04:08.321Z,100465.17
2018-08-30T19:06:37.367Z,100465.84
2018-08-30T19:09:05.483Z,100466.66
2018-08-30T19:11:33.117Z,100476.63
2018-08-30T19:14:03.412Z,100474.90
2018-08-30T19:16:36.429Z,100470.14
2018-08-30T19:19:09.128Z,100472.98
2018-08-30T19:21:37.884Z,100483.61
2018-08-30T19:24:06.727Z,100484.92
2018-08-30T19:26:34.437Z,100482.55
2018-08-30T19:29:03.115Z,100479.95
2018-08-30T19:31:31.370Z,100483.12
2018-08-30T19:34:00.628Z,100482.58
2018-08-30T19:36:32.135Z,100488.30
2018-08-30T19:39:00.944Z,100486.76
2018-08-30T19:41:30.874Z,100481.69
2018-08-30T19:43:59.206Z,100485.34
2018-08-30T19:46:27.800Z,100486.67
2018-08-30T19:48:55.716Z,100483.73
2018-08-30T19:51:23.439Z,100482.65
2018-08-30T19:53:53.288Z,100488.16
2018-08-30T19:56:22.222Z,100489.09
2018-08-30T19:58:51.643Z,100486.31
2018-08-30T20:01:21.542Z,100489.13
2018-08-30T20:03:49.431Z,100485.52
2018-08-30T20:06:17.051Z,100488.52
2018-08-30T20:08:46.301Z,100487.08
2018-08-30T20:11:14.212Z,100491.95
2018-08-30T20:13:48.242Z,100488.05
2018-08-30T20:16:16.862Z,100489.74
2018-08-30T20:18:47.708Z,100488.74
2018-08-30T20:21:15.652Z,100490.95
2018-08-30T20:23:43.695Z,100486.39
2018-08-30T20:26:12.576Z,100490.44
2018-08-30T20:28:41.417Z,100490.61
2018-08-30T20:31:10.733Z,100494.13
2018-08-30T20:33:40.257Z,100488.88
2018-08-30T20:36:09.939Z,100495.07
2018-08-30T20:38:37.612Z,100499.56
2018-08-30T20:41:05.661Z,100497.87
2018-08-30T20:43:35.594Z,100505.12
2018-08-30T20:46:03.615Z,100498.05
2018-08-30T20:48:31.613Z,100497.53
2018-08-30T20:50:59.341Z,100496.04
2018-08-30T20:53:27.805Z,100495.73
2018-08-30T20:55:56.143Z,100493.72
2018-08-30T20:58:24.637Z,100494.09
2018-08-30T21:00:53.066Z,100498.14
2018-08-30T21:03:21.044Z,100494.23
2018-08-30T21:05:49.459Z,100483.12
2018-08-30T21:08:19.638Z,100488.86
2018-08-30T21:10:49.284Z,100494.37
2018-08-30T21:13:17.736Z,100490.00
2018-08-30T21:15:45.408Z,100484.95
2018-08-30T21:18:13.549Z,100490.06
2018-08-30T21:20:41.463Z,100485.84
2018-08-30T21:23:09.974Z,100491.78
2018-08-30T21:25:37.910Z,100494.33
2018-08-30T21:28:06.405Z,100493.33
2018-08-30T21:30:34.075Z,100494.02
2018-08-30T21:33:03.483Z,100489.14
2018-08-30T21:35:32.146Z,100493.67
2018-08-30T21:38:03.851Z,100491.50
2018-08-30T21:40:31.904Z,100494.19
2018-08-30T21:42:59.568Z,100494.19
2018-08-30T21:45:27.359Z,100497.37
2018-08-30T21:47:56.295Z,100492.78
2018-08-30T21:50:23.987Z,100499.52
2018-08-30T21:52:51.679Z,100495.27
2018-08-30T21:55:19.668Z,100500.63
2018-08-30T21:57:47.912Z,100500.77
2018-08-30T22:00:15.598Z,100507.09
2018-08-30T22:02:43.551Z,100503.02
2018-08-30T22:05:11.137Z,100499.78
2018-08-30T22:07:39.281Z,100505.75
2018-08-30T22:10:07.147Z,100504.17
2018-08-30T22:12:35.524Z,100510.13
2018-08-30T22:15:05.216Z,100510.58
2018-08-30T22:17:34.334Z,100511.52
2018-08-30T22:20:01.978Z,100512.95
2018-08-30T22:22:29.599Z,100509.37
2018-08-30T22:24:57.209Z,100511.84
2018-08-30T22:27:29.545Z,100510.02
2018-08-30T22:32:32.151Z,100512.20
2018-08-30T22:35:00.229Z,100514.54
2018-08-30T22:37:27.952Z,100512.54
2018-08-30T22:39:55.651Z,100515.95
2018-08-30T22:42:23.651Z,100509.84
2018-08-30T22:44:51.577Z,100512.71
2018-08-30T22:47:23.155Z,100511.30
2018-08-30T22:49:50.774Z,100510.05
2018-08-30T22:52:19.592Z,100509.28
2018-08-30T22:54:48.367Z,100502.09
2018-08-30T22:57:16.354Z,100512.48
2018-08-30T22:59:43.945Z,100502.87
2018-08-30T23:02:12.416Z,100502.05
2018-08-30T23:04:40.027Z,100493.64
2018-08-30T23:07:07.643Z,100503.20
2018-08-30T23:09:35.740Z,100503.20
2018-08-30T23:12:04.878Z,100500.16
2018-08-30T23:14:32.579Z,100504.17
2018-08-30T23:17:00.725Z,100509.52
2018-08-30T23:19:28.348Z,100504.39
2018-08-30T23:21:55.967Z,100505.92
2018-08-30T23:24:23.866Z,100507.08
2018-08-30T23:26:51.496Z,100501.05
2018-08-30T23:29:19.180Z,100507.11
2018-08-30T23:31:46.799Z,100508.48
2018-08-30T23:34:14.715Z,100512.22
2018-08-30T23:36:42.357Z,100515.44
2018-08-30T23:39:11.283Z,100509.78
2018-08-30T23:41:39.238Z,100505.81
2018-08-30T23:44:06.870Z,100508.04
2018-08-30T23:46:34.624Z,100510.14
2018-08-30T23:49:02.405Z,100505.54
2018-08-30T23:51:30.301Z,100507.77
2018-08-30T23:53:57.932Z,100505.48
2018-08-30T23:56:25.530Z,100502.22
2018-08-30T23:58:53.145Z,100506.52
